createdAt,value
2022-08-05T00:00:46.615Z,67.88
2022-08-05T00:03:16.600Z,68.15
2022-08-05T00:06:04.859Z,68.30
2022-08-05T00:08:35.244Z,67.91
2022-08-05T00:11:04.261Z,67.85
2022-08-05T00:13:38.238Z,67.36
2022-08-05T00:16:08.893Z,67.40
2022-08-05T00:18:37.972Z,67.46
2022-08-05T00:21:06.508Z,67.72
2022-08-05T00:23:45.814Z,67.73
2022-08-05T00:26:20.470Z,67.98
2022-08-05T00:28:46.981Z,68.07
2022-08-05T00:31:15.976Z,68.78
2022-08-05T00:34:55.263Z,68.37
2022-08-05T00:37:10.631Z,68.29
2022-08-05T00:39:15.636Z,68.67
2022-08-05T00:41:51.663Z,69.07
2022-08-05T00:44:18.950Z,69.34
2022-08-05T00:46:47.459Z,69.50
2022-08-05T00:49:20.959Z,68.93
2022-08-05T00:51:50.775Z,68.48
2022-08-05T00:54:18.955Z,69.15
2022-08-05T00:56:51.312Z,69.25
2022-08-05T00:59:18.459Z,69.40
2022-08-05T01:01:48.710Z,69.24
2022-08-05T01:04:15.691Z,69.57
2022-08-05T01:06:43.690Z,69.60
2022-08-05T01:09:13.175Z,69.10
2022-08-05T01:11:41.522Z,69.30
2022-08-05T01:14:28.267Z,69.18
2022-08-05T01:17:27.395Z,70.00
2022-08-05T01:20:09.287Z,70.01
2022-08-05T01:22:35.630Z,69.90
2022-08-05T01:25:20.954Z,70.45
2022-08-05T01:28:15.602Z,70.25
2022-08-05T01:30:55.256Z,70.04
2022-08-05T01:33:26.479Z,70.48
2022-08-05T01:35:55.638Z,70.69
2022-08-05T01:38:27.357Z,71.04
2022-08-05T01:40:58.796Z,71.58
2022-08-05T01:43:27.864Z,71.66
2022-08-05T01:45:56.566Z,71.20
2022-08-05T01:48:29.388Z,71.63
2022-08-05T01:50:57.624Z,71.24
2022-08-05T01:53:55.235Z,70.80
2022-08-05T01:58:13.576Z,70.86
2022-08-05T01:59:08.211Z,71.39
2022-08-05T02:01:39.839Z,71.01
2022-08-05T02:04:10.360Z,70.44
2022-08-05T02:06:38.945Z,70.93
2022-08-05T02:09:07.301Z,71.71
2022-08-05T02:12:02.876Z,71.27
2022-08-05T02:14:40.023Z,71.19
2022-08-05T02:18:28.686Z,70.89
2022-08-05T02:20:10.142Z,71.56
2022-08-05T02:22:41.816Z,71.65
2022-08-05T02:25:14.369Z,71.67
2022-08-05T02:27:59.237Z,72.08
2022-08-05T02:30:35.247Z,71.66
2022-08-05T02:33:02.662Z,71.71
2022-08-05T02:35:37.763Z,72.48
2022-08-05T02:38:13.279Z,72.58
2022-08-05T02:40:46.896Z,72.80
2022-08-05T02:43:15.436Z,71.85
2022-08-05T02:45:51.466Z,72.61
2022-08-05T02:48:29.455Z,72.94
2022-08-05T02:50:59.709Z,72.93
2022-08-05T02:53:27.767Z,72.74
2022-08-05T02:56:00.326Z,72.93
2022-08-05T02:58:30.287Z,72.82
2022-08-05T03:01:01.813Z,73.66
2022-08-05T03:03:33.818Z,73.69
2022-08-05T03:06:55.285Z,74.19
2022-08-05T03:09:05.138Z,74.06
2022-08-05T03:11:54.769Z,73.62
2022-08-05T03:14:20.893Z,73.38
2022-08-05T03:16:47.651Z,73.17
2022-08-05T03:19:17.373Z,72.79
2022-08-05T03:22:00.160Z,73.35
2022-08-05T03:24:30.425Z,73.31
2022-08-05T03:26:59.044Z,73.47
2022-08-05T03:29:45.721Z,73.72
2022-08-05T03:32:14.377Z,73.33
2022-08-05T03:34:42.013Z,73.11
2022-08-05T03:37:08.551Z,73.91
2022-08-05T03:39:57.684Z,74.59
2022-08-05T03:42:24.028Z,74.78
2022-08-05T03:44:53.769Z,75.04
2022-08-05T03:47:20.366Z,75.56
2022-08-05T03:49:51.980Z,75.47
2022-08-05T03:52:37.321Z,74.73
2022-08-05T03:56:05.685Z,74.63
2022-08-05T03:58:11.062Z,74.33
2022-08-05T04:00:41.985Z,74.52
2022-08-05T04:03:14.916Z,74.53
2022-08-05T04:05:56.160Z,74.80
2022-08-05T04:08:34.918Z,74.62
2022-08-05T04:11:05.987Z,74.55
2022-08-05T04:13:49.850Z,74.71
2022-08-05T04:16:25.020Z,75.11
2022-08-05T04:18:54.115Z,74.61
2022-08-05T04:22:09.008Z,74.97
2022-08-05T04:24:08.938Z,75.15
2022-08-05T04:26:40.850Z,75.11
2022-08-05T04:29:07.628Z,74.95
2022-08-05T04:31:38.569Z,75.34
2022-08-05T04:34:31.175Z,75.42
2022-08-05T04:36:53.043Z,75.48
2022-08-05T04:39:20.247Z,74.63
2022-08-05T04:41:48.061Z,75.42
2022-08-05T04:44:14.999Z,75.06
2022-08-05T04:46:47.672Z,75.20
2022-08-05T04:49:15.349Z,75.40
2022-08-05T04:51:44.028Z,75.45
2022-08-05T04:54:12.019Z,75.11
2022-08-05T04:56:39.209Z,75.04
2022-08-05T04:59:21.722Z,74.50
2022-08-05T05:02:35.457Z,74.91
2022-08-05T05:04:38.498Z,74.48
2022-08-05T05:07:11.623Z,74.23
2022-08-05T05:09:42.328Z,74.10
2022-08-05T05:12:10.968Z,74.45
2022-08-05T05:14:38.229Z,74.15
2022-08-05T05:17:22.741Z,73.96
2022-08-05T05:19:53.257Z,74.13
2022-08-05T05:22:23.469Z,73.79
2022-08-05T05:24:57.593Z,73.40
2022-08-05T05:27:44.776Z,73.36
2022-08-05T05:30:29.866Z,73.27
2022-08-05T05:33:00.622Z,73.48
2022-08-05T05:35:34.274Z,72.90
2022-08-05T05:38:09.419Z,73.03
2022-08-05T05:40:48.249Z,72.71
2022-08-05T05:43:22.270Z,72.35
2022-08-05T05:46:05.210Z,71.71
2022-08-05T05:48:34.451Z,72.45
2022-08-05T05:51:14.797Z,72.64
2022-08-05T05:53:45.948Z,71.88
2022-08-05T05:56:26.080Z,72.30
2022-08-05T05:59:03.437Z,72.12
2022-08-05T06:01:37.552Z,70.56
2022-08-05T06:04:12.196Z,70.77
2022-08-05T06:06:47.339Z,70.79
2022-08-05T06:09:17.729Z,70.95
2022-08-05T06:11:59.725Z,70.22
2022-08-05T06:14:30.756Z,70.67
2022-08-05T06:16:57.895Z,70.21
2022-08-05T06:19:26.129Z,70.66
2022-08-05T06:22:06.631Z,69.20
2022-08-05T06:24:34.840Z,68.31
2022-08-05T06:27:04.013Z,67.62
2022-08-05T06:29:52.033Z,67.09
2022-08-05T06:32:24.921Z,67.54
2022-08-05T06:34:54.066Z,66.85
2022-08-05T06:37:56.082Z,65.55
2022-08-05T06:40:10.116Z,67.87
2022-08-05T06:42:37.356Z,67.26
2022-08-05T06:45:08.923Z,65.96
2022-08-05T06:48:36.208Z,65.50
2022-08-05T06:50:23.599Z,65.21
2022-08-05T06:52:58.642Z,64.09
2022-08-05T06:55:36.383Z,65.75
2022-08-05T06:58:20.581Z,65.21
2022-08-05T07:00:51.167Z,65.30
2022-08-05T07:03:17.834Z,63.05
2022-08-05T07:05:46.202Z,64.90
2022-08-05T07:08:13.268Z,63.21
2022-08-05T07:10:53.327Z,64.62
2022-08-05T07:13:57.688Z,63.00
2022-08-05T07:17:59.876Z,64.03
2022-08-05T07:20:10.580Z,64.24
2022-08-05T07:22:17.610Z,64.04
2022-08-05T07:24:52.715Z,64.91
2022-08-05T07:27:20.250Z,64.18
2022-08-05T07:30:22.045Z,64.27
2022-08-05T07:32:38.503Z,62.28
2022-08-05T07:35:56.065Z,62.38
2022-08-05T07:37:59.096Z,62.36
2022-08-05T07:40:32.205Z,61.91
2022-08-05T07:42:59.284Z,61.55
2022-08-05T07:45:57.468Z,58.89
2022-08-05T07:49:00.985Z,59.70
2022-08-05T07:51:22.991Z,59.20
2022-08-05T07:53:51.680Z,58.03
2022-08-05T07:57:00.033Z,59.34
2022-08-05T07:59:04.816Z,55.87
2022-08-05T08:01:35.373Z,56.97
2022-08-05T08:04:08.108Z,58.13
2022-08-05T08:06:34.692Z,57.31
2022-08-05T08:09:01.179Z,56.39
2022-08-05T08:11:47.810Z,54.24
2022-08-05T08:14:18.219Z,52.80
2022-08-05T08:16:51.029Z,52.70
2022-08-05T08:20:10.437Z,49.44
2022-08-05T08:22:05.106Z,51.04
2022-08-05T08:24:45.992Z,52.76
2022-08-05T08:27:18.918Z,52.35
2022-08-05T08:30:06.088Z,51.96
2022-08-05T08:32:34.715Z,51.91
2022-08-05T08:35:07.564Z,50.60
2022-08-05T08:37:40.372Z,48.27
2022-08-05T08:40:12.360Z,48.57
2022-08-05T08:42:50.671Z,48.49
2022-08-05T08:45:26.637Z,48.03
2022-08-05T08:48:12.938Z,45.12
2022-08-05T08:51:03.389Z,47.83
2022-08-05T08:53:40.211Z,47.55
2022-08-05T08:56:10.993Z,47.79
2022-08-05T08:58:44.563Z,49.97
2022-08-05T09:01:15.746Z,49.34
2022-08-05T09:03:54.316Z,51.45
2022-08-05T09:06:24.227Z,49.88
2022-08-05T09:08:58.591Z,50.23
2022-08-05T09:11:50.806Z,49.27
2022-08-05T09:14:56.768Z,49.15
2022-08-05T09:17:04.651Z,49.90
2022-08-05T09:19:36.665Z,47.16
2022-08-05T09:22:31.810Z,48.65
2022-08-05T09:25:13.824Z,48.36
2022-08-05T09:28:04.420Z,48.13
2022-08-05T09:30:34.694Z,47.20
2022-08-05T09:33:02.365Z,46.87
2022-08-05T09:35:29.480Z,47.00
2022-08-05T09:38:17.267Z,43.30
2022-08-05T09:40:52.545Z,44.44
2022-08-05T09:43:40.604Z,44.58
2022-08-05T09:46:33.075Z,44.47
2022-08-05T09:49:19.012Z,42.21
2022-08-05T09:51:48.751Z,42.21
2022-08-05T09:54:29.102Z,42.56
2022-08-05T09:56:57.560Z,40.05
2022-08-05T09:59:28.057Z,41.34
2022-08-05T10:01:57.922Z,39.44
2022-08-05T10:04:35.280Z,40.03
2022-08-05T10:07:19.632Z,40.95
2022-08-05T10:10:00.303Z,39.11
2022-08-05T10:12:49.212Z,38.82
2022-08-05T10:15:20.195Z,37.07
2022-08-05T10:18:09.817Z,37.99
2022-08-05T10:20:59.454Z,38.68
2022-08-05T10:23:59.924Z,37.74
2022-08-05T10:26:52.405Z,37.72
2022-08-05T10:29:11.397Z,37.65
2022-08-05T10:32:52.338Z,36.95
2022-08-05T10:34:31.102Z,36.91
2022-08-05T10:36:58.360Z,37.70
2022-08-05T10:40:03.157Z,37.14
2022-08-05T10:42:33.789Z,35.68
2022-08-05T10:45:01.933Z,36.25
2022-08-05T10:48:30.384Z,34.08
2022-08-05T10:51:04.797Z,35.11
2022-08-05T10:53:51.998Z,32.80
2022-08-05T10:56:26.147Z,33.50
2022-08-05T10:58:55.682Z,32.46
2022-08-05T11:01:54.929Z,33.69
2022-08-05T11:04:28.267Z,30.11
2022-08-05T11:07:01.374Z,29.77
2022-08-05T11:09:46.079Z,31.22
2022-08-05T11:12:37.226Z,31.31
2022-08-05T11:15:19.113Z,30.03
2022-08-05T11:17:57.883Z,30.96
2022-08-05T11:20:43.632Z,30.09
2022-08-05T11:24:04.963Z,30.87
2022-08-05T11:26:33.053Z,31.24
2022-08-05T11:29:12.027Z,31.34
2022-08-05T11:31:57.608Z,31.42
2022-08-05T11:34:38.616Z,32.67
2022-08-05T11:37:06.253Z,32.80
2022-08-05T11:40:00.456Z,32.95
2022-08-05T11:42:37.754Z,32.16
2022-08-05T11:45:27.037Z,32.20
2022-08-05T11:47:57.937Z,34.19
2022-08-05T11:50:25.814Z,34.76
2022-08-05T11:52:57.701Z,34.98
2022-08-05T11:55:31.812Z,32.95
2022-08-05T11:58:09.648Z,32.23
2022-08-05T12:00:39.019Z,32.93
2022-08-05T12:03:28.529Z,33.46
2022-08-05T12:06:02.846Z,35.24
2022-08-05T12:08:31.659Z,34.00
2022-08-05T12:11:05.803Z,35.12
2022-08-05T12:13:48.872Z,33.79
2022-08-05T12:16:18.993Z,34.63
2022-08-05T12:18:49.331Z,33.70
2022-08-05T12:21:26.792Z,35.62
2022-08-05T12:24:03.354Z,34.43
2022-08-05T12:26:43.863Z,34.74
2022-08-05T12:29:16.426Z,33.27
2022-08-05T12:31:50.132Z,34.45
2022-08-05T12:34:26.669Z,34.24
2022-08-05T12:36:54.507Z,36.93
2022-08-05T12:39:23.692Z,37.43
2022-08-05T12:42:00.854Z,37.05
2022-08-05T12:44:33.333Z,37.06
2022-08-05T12:47:02.142Z,38.57
2022-08-05T12:50:03.869Z,38.21
2022-08-05T12:52:41.668Z,36.91
2022-08-05T12:55:23.236Z,37.10
2022-08-05T12:58:48.494Z,37.23
2022-08-05T13:02:03.462Z,37.61
2022-08-05T13:03:32.381Z,36.53
2022-08-05T13:05:59.892Z,36.83
2022-08-05T13:08:32.138Z,37.92
2022-08-05T13:11:01.967Z,37.68
2022-08-05T13:14:06.170Z,38.29
2022-08-05T13:16:17.155Z,38.14
2022-08-05T13:18:59.420Z,38.38
2022-08-05T13:21:27.882Z,39.53
2022-08-05T13:24:04.860Z,38.73
2022-08-05T13:26:31.386Z,38.41
2022-08-05T13:28:59.313Z,38.72
2022-08-05T13:32:02.943Z,40.10
2022-08-05T13:34:22.766Z,36.76
2022-08-05T13:36:50.311Z,37.56
2022-08-05T13:40:13.959Z,36.55
2022-08-05T13:42:04.901Z,36.96
2022-08-05T13:44:32.679Z,37.69
2022-08-05T13:47:04.867Z,39.07
2022-08-05T13:49:35.899Z,39.66
2022-08-05T13:52:29.112Z,38.34
2022-08-05T13:54:56.969Z,39.09
2022-08-05T13:57:26.173Z,39.19
2022-08-05T14:00:13.122Z,36.63
2022-08-05T14:02:39.697Z,36.55
2022-08-05T14:05:15.272Z,37.34
2022-08-05T14:08:00.875Z,38.39
2022-08-05T14:10:32.440Z,37.61
2022-08-05T14:12:59.359Z,37.70
2022-08-05T14:16:07.886Z,38.09
2022-08-05T14:18:17.370Z,36.44
2022-08-05T14:20:47.729Z,38.15
2022-08-05T14:23:23.813Z,36.94
2022-08-05T14:25:54.548Z,36.99
2022-08-05T14:28:29.463Z,37.13
2022-08-05T14:31:00.603Z,37.54
2022-08-05T14:33:57.013Z,37.18
2022-08-05T14:36:21.387Z,38.00
2022-08-05T14:38:48.415Z,37.06
2022-08-05T14:41:18.718Z,37.79
2022-08-05T14:44:02.718Z,38.00
2022-08-05T14:46:32.732Z,36.64
2022-08-05T14:49:06.906Z,37.07
2022-08-05T14:51:38.032Z,37.59
2022-08-05T14:54:27.842Z,37.56
2022-08-05T14:56:54.604Z,39.22
2022-08-05T14:59:21.818Z,39.07
2022-08-05T15:01:49.724Z,39.05
2022-08-05T15:04:20.644Z,39.97
2022-08-05T15:06:50.282Z,40.36
2022-08-05T15:09:51.039Z,40.90
2022-08-05T15:12:08.870Z,40.30
2022-08-05T15:14:48.144Z,41.49
2022-08-05T15:17:47.231Z,40.02
2022-08-05T15:20:04.206Z,39.96
2022-08-05T15:22:30.667Z,40.80
2022-08-05T15:24:59.201Z,41.33
2022-08-05T15:27:32.011Z,41.41
2022-08-05T15:30:03.764Z,41.44
2022-08-05T15:32:30.333Z,43.06
2022-08-05T15:34:58.254Z,41.49
2022-08-05T15:38:31.961Z,41.92
2022-08-05T15:40:59.707Z,42.00
2022-08-05T15:43:09.208Z,42.17
2022-08-05T15:45:43.895Z,43.13
2022-08-05T15:48:13.956Z,42.60
2022-08-05T15:50:41.212Z,42.42
2022-08-05T15:53:12.778Z,43.20
2022-08-05T15:56:02.706Z,42.87
2022-08-05T15:58:28.210Z,42.63
2022-08-05T16:01:11.660Z,41.78
2022-08-05T16:03:42.317Z,41.52
2022-08-05T16:06:11.205Z,42.42
2022-08-05T16:08:38.627Z,41.41
2022-08-05T16:11:07.123Z,42.25
2022-08-05T16:13:35.163Z,42.45
2022-08-05T16:16:03.608Z,40.44
2022-08-05T16:18:30.998Z,42.17
2022-08-05T16:20:58.597Z,42.10
2022-08-05T16:23:29.192Z,40.46
2022-08-05T16:26:15.690Z,40.82
2022-08-05T16:28:43.332Z,41.58
2022-08-05T16:31:10.511Z,41.38
2022-08-05T16:33:41.505Z,41.84
2022-08-05T16:36:09.092Z,41.99
2022-08-05T16:38:35.762Z,41.47
2022-08-05T16:42:12.118Z,42.66
2022-08-05T16:43:49.328Z,42.28
2022-08-05T16:46:24.829Z,41.94
2022-08-05T16:48:51.870Z,42.03
2022-08-05T16:51:19.241Z,40.63
2022-08-05T16:54:05.650Z,41.53
2022-08-05T16:56:38.128Z,41.27
2022-08-05T16:59:11.901Z,40.18
2022-08-05T17:01:53.727Z,40.50
2022-08-05T17:04:23.812Z,41.07
2022-08-05T17:06:53.662Z,40.45
2022-08-05T17:09:20.586Z,41.00
2022-08-05T17:11:55.987Z,39.76
2022-08-05T17:14:36.851Z,40.96
2022-08-05T17:17:05.766Z,41.53
2022-08-05T17:19:32.276Z,41.21
2022-08-05T17:22:00.627Z,41.68
2022-08-05T17:24:35.226Z,41.79
2022-08-05T17:27:07.473Z,42.05
2022-08-05T17:29:41.113Z,41.55
2022-08-05T17:32:11.637Z,42.62
2022-08-05T17:34:47.647Z,43.09
2022-08-05T17:37:40.241Z,45.10
2022-08-05T17:40:10.000Z,44.72
2022-08-05T17:42:41.557Z,43.80
2022-08-05T17:45:20.782Z,44.50
2022-08-05T17:47:53.429Z,44.77
2022-08-05T17:50:28.558Z,44.86
2022-08-05T17:52:58.935Z,44.64
2022-08-05T17:55:34.363Z,45.71
2022-08-05T17:58:12.913Z,45.62
2022-08-05T18:00:47.634Z,44.86
2022-08-05T18:03:59.622Z,45.21
2022-08-05T18:06:11.974Z,45.62
2022-08-05T18:08:44.800Z,46.19
2022-08-05T18:11:24.349Z,45.71
2022-08-05T18:14:06.804Z,46.05
2022-08-05T18:16:35.200Z,47.20
2022-08-05T18:19:18.187Z,46.59
2022-08-05T18:22:09.470Z,46.93
2022-08-05T18:24:36.189Z,46.82
2022-08-05T18:27:02.699Z,45.68
2022-08-05T18:29:40.512Z,45.45
2022-08-05T18:32:13.086Z,45.23
2022-08-05T18:34:40.696Z,45.34
2022-08-05T18:37:08.402Z,45.39
2022-08-05T18:40:31.051Z,45.44
2022-08-05T18:42:26.216Z,44.68
2022-08-05T18:44:56.540Z,45.74
2022-08-05T18:47:26.344Z,45.88
2022-08-05T18:50:12.083Z,45.54
2022-08-05T18:52:41.813Z,46.32
2022-08-05T18:55:18.594Z,47.18
2022-08-05T18:57:52.607Z,46.95
2022-08-05T19:00:29.193Z,47.52
2022-08-05T19:02:56.907Z,48.21
2022-08-05T19:06:13.612Z,48.26
2022-08-05T19:08:12.196Z,48.60
2022-08-05T19:10:40.745Z,48.48
2022-08-05T19:13:07.425Z,48.96
2022-08-05T19:15:57.538Z,48.90
2022-08-05T19:18:26.068Z,49.58
2022-08-05T19:20:56.559Z,49.91
2022-08-05T19:24:07.389Z,49.82
2022-08-05T19:26:13.875Z,49.77
2022-08-05T19:28:42.237Z,50.00
2022-08-05T19:31:17.765Z,49.81
2022-08-05T19:33:47.933Z,50.26
2022-08-05T19:36:23.075Z,50.60
2022-08-05T19:38:49.607Z,50.85
2022-08-05T19:41:16.109Z,51.07
2022-08-05T19:44:05.653Z,51.29
2022-08-05T19:46:30.959Z,51.24
2022-08-05T19:49:03.141Z,51.45
2022-08-05T19:52:09.411Z,51.67
2022-08-05T19:54:25.536Z,52.05
2022-08-05T19:56:55.223Z,52.13
2022-08-05T19:59:59.332Z,52.54
2022-08-05T20:02:08.461Z,52.67
2022-08-05T20:04:37.236Z,53.29
2022-08-05T20:07:03.938Z,53.70
2022-08-05T20:09:54.985Z,54.34
2022-08-05T20:12:26.476Z,54.20
2022-08-05T20:14:53.319Z,54.35
2022-08-05T20:17:23.492Z,54.32
2022-08-05T20:19:57.012Z,54.80
2022-08-05T20:22:26.746Z,54.50
2022-08-05T20:24:54.529Z,54.93
2022-08-05T20:27:26.932Z,54.50
2022-08-05T20:29:58.531Z,55.15
2022-08-05T20:32:26.580Z,55.40
2022-08-05T20:34:53.622Z,55.43
2022-08-05T20:38:04.873Z,55.44
2022-08-05T20:40:07.911Z,55.55
2022-08-05T20:42:34.716Z,55.65
2022-08-05T20:45:02.101Z,56.00
2022-08-05T20:47:31.119Z,56.15
2022-08-05T20:49:59.434Z,55.97
2022-08-05T20:52:26.383Z,56.30
2022-08-05T20:55:54.283Z,56.49
2022-08-05T20:57:43.319Z,56.67
2022-08-05T21:00:41.432Z,56.76
2022-08-05T21:03:06.213Z,56.91
2022-08-05T21:05:53.843Z,56.87
2022-08-05T21:08:32.904Z,56.49
2022-08-05T21:11:15.259Z,56.39
2022-08-05T21:13:59.913Z,56.66
2022-08-05T21:16:29.326Z,56.58
2022-08-05T21:18:56.811Z,56.87
2022-08-05T21:21:26.746Z,57.18
2022-08-05T21:24:07.315Z,57.22
2022-08-05T21:26:33.938Z,56.92
2022-08-05T21:29:03.736Z,57.55
2022-08-05T21:31:41.541Z,57.69
2022-08-05T21:34:10.606Z,58.44
2022-08-05T21:36:37.960Z,57.87
2022-08-05T21:39:04.848Z,58.27
2022-08-05T21:41:33.786Z,58.16
2022-08-05T21:44:01.537Z,58.50
2022-08-05T21:46:30.980Z,58.76
2022-08-05T21:48:59.986Z,58.79
2022-08-05T21:52:16.620Z,59.30
2022-08-05T21:54:13.191Z,59.55
2022-08-05T21:56:44.506Z,59.29
2022-08-05T21:59:22.604Z,59.49
2022-08-05T22:01:51.689Z,60.01
2022-08-05T22:04:21.149Z,60.09
2022-08-05T22:06:52.367Z,60.25
2022-08-05T22:09:21.058Z,60.08
2022-08-05T22:11:48.945Z,60.26
2022-08-05T22:14:37.354Z,60.43
2022-08-05T22:17:06.582Z,60.08
2022-08-05T22:20:00.302Z,60.55
2022-08-05T22:22:28.263Z,60.96
2022-08-05T22:25:23.981Z,60.82
2022-08-05T22:28:10.405Z,61.79
2022-08-05T22:30:55.612Z,61.49
2022-08-05T22:33:57.106Z,61.98
2022-08-05T22:36:14.209Z,62.13
2022-08-05T22:38:42.539Z,62.09
2022-08-05T22:41:10.203Z,62.40
2022-08-05T22:43:38.081Z,62.42
2022-08-05T22:46:13.670Z,62.65
2022-08-05T22:48:50.534Z,62.75
2022-08-05T22:51:22.729Z,63.19
2022-08-05T22:54:05.102Z,63.11
2022-08-05T22:56:31.900Z,62.91
2022-08-05T22:59:00.022Z,63.29
2022-08-05T23:02:05.227Z,63.62
2022-08-05T23:04:18.102Z,63.93
2022-08-05T23:06:44.595Z,63.96
2022-08-05T23:09:24.634Z,64.24
2022-08-05T23:11:54.750Z,64.36
2022-08-05T23:14:22.544Z,64.41
2022-08-05T23:17:08.138Z,64.32
2022-08-05T23:19:46.575Z,65.04
2022-08-05T23:22:24.195Z,65.12
2022-08-05T23:24:54.789Z,65.38
2022-08-05T23:27:22.717Z,65.70
2022-08-05T23:29:50.807Z,65.99
2022-08-05T23:32:17.499Z,65.83
2022-08-05T23:34:49.855Z,66.30
2022-08-05T23:37:17.677Z,66.27
2022-08-05T23:39:53.340Z,66.65
2022-08-05T23:42:23.550Z,66.71
2022-08-05T23:44:56.638Z,66.76
2022-08-05T23:47:25.051Z,66.75
2022-08-05T23:49:55.583Z,67.09
2022-08-05T23:52:26.491Z,67.09
2022-08-05T23:54:56.042Z,67.30
2022-08-05T23:57:22.572Z,66.24
